Warning: Javascript must be enabled to use all the features on this page!


Page Loading - Please Wait...

Click to hideNews Bulletins

Peak Streamflow for the Nation

USGS 03240000 Little Miami River near Oldtown OH

Greene County, Ohio
Hydrologic Unit Code 05090202
Latitude  39°44'54", Longitude  83°55'53" NAD27
Drainage area 129  square miles
Contributing drainage area 129  square miles
Gage datum 816.08 feet above NAVD88
Output formats
Table
Graph
Tab-separated file
peakfq (watstore) format
Reselect output format
Water
Year
Date Gage
Height
(feet)
Stream-
flow
(cfs)
1953 1953-03-04 4.28 625
1954 1954-06-08 10.20 4,720
1955 1955-03-22 7.42 1,860
1956 1956-04-03 6.70 1,530
1957 1957-04-04 9.62 3,880
1958 1958-08-03 10.03 4,390
1959 1959-01-21 12.20 14,800
1960 1960-02-11 4.43 690
1961 1961-08-11 6.84 1,630
1962 1962-02-26 7.58 2,060
1963 1963-03-04 12.18 14,600
1964 1964-03-10 10.68 6,040
1965 1965-04-12 5.97 1,370
1966 1966-02-11 5.82 1,310
1967 1967-03-06 7.69 2,140
1968 1968-05-24 10.83 6,490
1969 1969-06-25 8.16 2,420
1970 1970-04-02 9.35 3,480
1971 1971-06-26 7.49 2,040
1972 1972-05-09 6.66 1,830
1973 1973-06-17 8.40 2,550
1974 1974-04-04 7.04 1,820
1975 1975-07-04 10.75 6,480
1976 1976-02-18 7.08 1,840
1977 1977-02-24   1,3502
1978 1978-03-15 8.67 2,740
1979 1979-09-15 10.28 4,990
1980 1980-06-29 10.43 5,660
1981 1981-06-06 11.03 7,350
1982 1982-02-01 10.22 5,260
1983 1983-05-01 7.70 2,520
1984 1984-02-14 5.40 1,280
1985 1985-02-24 7.25 2,240
1986 1986-03-13 6.49 1,820
1987 1987-07-02 8.32 2,990
1988 1988-02-02 5.07 1,130
1989 1989-05-26 8.88 3,490
1990 1990-07-13 10.05 4,960
1991 1990-12-31 9.96 4,800
1992 1992-04-19 3.89 572
1993 1993-03-05 6.87 1,830
1994 1994-01-28 8.14 2,720
1995 1995-05-19 7.13 1,750
1996 1996-04-29 9.57 4,260
1997 1997-06-02 8.83 3,450
1998 1998-05-08 8.16 2,910
1999 1999-01-19 4.742 9099
2000 2000-04-08 7.91 2,720
2001 2001-05-19 8.08 2,850
2002 2001-12-18 8.28 3,010
2003 2003-09-02 7.30 2,290
2004 2004-01-05 10.51 5,810
2005 2005-01-06 9.92 4,700
2006 2006-03-13 6.45 1,750
2007 2007-03-02 9.91 4,680
2008 2008-06-04 10.65 6,150
2009 2009-02-12 4.72 901
2010 2010-03-13 8.20 2,940
2011 2011-04-20 9.50 4,170
2012 2011-12-06 9.75 4,480
2013 2013-07-08 6.42 1,730
2014 2014-05-21 11.18 7,880
2015 2015-06-20 8.55 3,220
2016 2015-12-28 6.47 1,760
2017 2017-07-12 8.03 2,810
2018 2017-11-06 10.34 5,460
2019 2019-05-28 9.26 3,890
2020 2020-03-20 11.19 7,910
2021 2021-01-02 6.15 1,590
2022 2022-02-23 8.19 2,940
?
  Peak Gage-Height Qualification Codes.
?
  Peak Streamflow Qualification Codes.